Time;durP1;ratioP1;P1;durP2;ratioP2;P2;SDS_P1;SDS_P2;PMS_P1;PMS_P2;Temp;Humidity;BMP_temperature;BMP_pressure;BME280_temperature;BME280_humidity;BME280_pressure;Samples;Min_cycle;Max_cycle;Signal;HPM_P1;HPM_P2
2021/08/09 00:00:40;;;;;;;4.65;3.10;;;13.40;99.90;;;;;;5014550;28;20200;-73
2021/08/09 00:03:07;;;;;;;6.15;3.58;;;13.50;99.90;;;;;;5014605;28;20026;-73
2021/08/09 00:05:35;;;;;;;4.00;2.92;;;13.40;99.90;;;;;;5014261;28;20033;-73
2021/08/09 00:08:02;;;;;;;4.28;3.38;;;13.30;99.90;;;;;;5014359;28;20104;-74
2021/08/09 00:10:28;;;;;;;6.53;4.05;;;13.30;99.90;;;;;;5014287;28;20025;-73
2021/08/09 00:12:55;;;;;;;9.23;5.30;;;13.30;99.90;;;;;;5012956;28;20093;-74
2021/08/09 00:15:20;;;;;;;11.38;6.43;;;13.20;99.90;;;;;;5001586;28;20029;-73
2021/08/09 00:17:46;;;;;;;9.27;6.00;;;13.20;99.90;;;;;;4994581;28;20026;-73
2021/08/09 00:20:12;;;;;;;8.50;5.20;;;13.10;99.90;;;;;;4993211;28;20058;-73
2021/08/09 00:22:38;;;;;;;12.95;5.28;;;13.10;99.90;;;;;;4994426;28;20117;-73
2021/08/09 00:25:06;;;;;;;9.15;4.75;;;13.20;99.90;;;;;;4994334;28;20515;-73
2021/08/09 00:27:32;;;;;;;6.80;3.92;;;13.20;99.90;;;;;;4994236;28;20041;-73
2021/08/09 00:29:57;;;;;;;5.45;3.80;;;13.30;99.90;;;;;;5005979;28;20026;-74
2021/08/09 00:32:23;;;;;;;7.75;4.10;;;13.30;99.90;;;;;;5013910;28;20077;-74
2021/08/09 00:34:48;;;;;;;7.13;4.78;;;13.20;99.90;;;;;;5013605;28;20026;-73
2021/08/09 00:37:14;;;;;;;10.13;6.22;;;13.10;99.90;;;;;;5012813;28;20362;-74
2021/08/09 00:39:40;;;;;;;7.95;4.53;;;13.00;99.90;;;;;;5013822;28;20033;-74
2021/08/09 00:42:07;;;;;;;10.52;5.18;;;12.90;99.90;;;;;;5013640;28;20037;-73
2021/08/09 00:44:33;;;;;;;6.57;4.68;;;13.10;99.90;;;;;;5013499;28;20484;-73
2021/08/09 00:46:58;;;;;;;6.47;4.88;;;13.10;99.90;;;;;;5013575;28;20037;-73
2021/08/09 00:49:24;;;;;;;6.07;4.65;;;13.20;99.90;;;;;;5013470;28;20069;-74
2021/08/09 00:51:51;;;;;;;7.75;5.65;;;13.10;99.90;;;;;;5013445;28;20101;-73
2021/08/09 00:54:18;;;;;;;7.55;5.15;;;13.00;99.90;;;;;;5013526;28;20092;-73
2021/08/09 00:56:45;;;;;;;6.53;3.95;;;12.90;99.90;;;;;;5013322;28;20108;-74
2021/08/09 00:59:11;;;;;;;7.07;5.28;;;13.00;99.90;;;;;;5013470;28;20032;-74
2021/08/09 01:01:36;;;;;;;8.98;5.65;;;12.90;99.90;;;;;;5013304;28;20356;-74
2021/08/09 01:04:03;;;;;;;9.55;5.82;;;12.90;99.90;;;;;;5013214;28;20088;-74
2021/08/09 01:06:28;;;;;;;6.85;5.32;;;13.00;99.90;;;;;;5013063;28;20026;-74
2021/08/09 01:09:19;;;;;;;8.35;4.82;;;13.10;99.90;;;;;;5013411;28;20080;-73
2021/08/09 01:12:13;;;;;;;9.60;5.13;;;13.10;99.90;;;;;;5013110;28;20022;-73
2021/08/09 01:15:07;;;;;;;6.15;4.20;;;13.20;99.90;;;;;;5005267;28;20520;-73
2021/08/09 01:17:42;;;;;;;7.85;4.60;;;13.10;99.90;;;;;;4993504;28;20042;-73
2021/08/09 01:20:26;;;;;;;7.15;4.35;;;13.10;99.90;;;;;;4993574;28;20023;-73
2021/08/09 01:23:20;;;;;;;9.00;4.57;;;13.20;99.90;;;;;;4993392;28;20030;-73
2021/08/09 01:26:08;;;;;;;6.40;4.10;;;13.20;99.90;;;;;;4993398;28;20388;-73
2021/08/09 01:28:34;;;;;;;5.43;3.80;;;13.20;99.90;;;;;;4992952;28;20073;-73
2021/08/09 01:31:01;;;;;;;6.57;3.95;;;13.30;99.90;;;;;;4993211;28;20022;-73
2021/08/09 01:33:28;;;;;;;5.93;3.70;;;13.10;99.90;;;;;;5008591;28;20054;-73
2021/08/09 01:35:56;;;;;;;6.20;3.53;;;13.00;99.90;;;;;;5012538;28;20455;-74
2021/08/09 01:38:24;;;;;;;6.68;3.78;;;12.90;99.90;;;;;;5011405;28;20033;-73
2021/08/09 01:40:56;;;;;;;7.10;4.30;;;12.90;99.90;;;;;;5012255;28;20065;-73
2021/08/09 01:43:22;;;;;;;6.63;4.22;;;13.00;99.90;;;;;;5012585;28;20026;-74
2021/08/09 01:45:48;;;;;;;5.68;3.60;;;13.00;99.90;;;;;;5012331;28;20052;-73
2021/08/09 01:48:14;;;;;;;7.50;3.80;;;13.00;99.90;;;;;;5012558;28;20052;-74
2021/08/09 01:50:40;;;;;;;6.20;3.85;;;13.00;99.90;;;;;;5012347;28;20061;-73
2021/08/09 01:53:07;;;;;;;6.45;3.85;;;12.90;99.90;;;;;;5012753;28;20478;-73
2021/08/09 01:55:33;;;;;;;5.95;3.70;;;13.00;99.90;;;;;;5010978;28;20117;-73
2021/08/09 01:57:58;;;;;;;4.93;3.67;;;13.10;99.90;;;;;;5012400;28;20108;-73
2021/08/09 02:00:24;;;;;;;5.15;3.40;;;13.10;99.90;;;;;;5012221;28;20473;-73
2021/08/09 02:02:52;;;;;;;4.82;3.50;;;13.10;99.90;;;;;;5012312;28;20542;-73
2021/08/09 02:05:18;;;;;;;5.50;3.88;;;13.10;99.90;;;;;;5012110;28;20030;-73
2021/08/09 02:07:46;;;;;;;8.57;4.25;;;13.10;99.90;;;;;;5012697;28;20033;-74
2021/08/09 02:10:15;;;;;;;5.55;3.90;;;13.10;99.90;;;;;;5012414;28;20013;-73
2021/08/09 02:12:49;;;;;;;4.55;3.72;;;13.20;99.90;;;;;;5012842;28;20392;-74
2021/08/09 02:15:23;;;;;;;5.75;3.90;;;13.10;99.90;;;;;;5001162;28;20038;-74
2021/08/09 02:17:59;;;;;;;5.30;4.30;;;13.20;99.90;;;;;;4999758;28;20092;-73
2021/08/09 02:20:31;;;;;;;4.40;3.88;;;13.10;99.90;;;;;;5010897;28;20033;-74
2021/08/09 02:23:02;;;;;;;6.95;3.42;;;13.20;99.90;;;;;;4993729;28;20177;-73
2021/08/09 02:25:32;;;;;;;7.57;3.83;;;13.30;99.90;;;;;;5007075;28;20034;-73
2021/08/09 02:28:06;;;;;;;4.30;3.45;;;13.10;99.90;;;;;;5012112;28;20385;-73
2021/08/09 02:30:35;;;;;;;4.70;3.75;;;13.10;99.90;;;;;;4995060;28;20018;-73
2021/08/09 02:33:02;;;;;;;4.28;3.58;;;13.10;99.90;;;;;;4992349;28;20018;-73
2021/08/09 02:35:28;;;;;;;5.45;3.67;;;13.10;99.90;;;;;;5009252;28;20027;-73
2021/08/09 02:37:56;;;;;;;5.45;3.60;;;13.10;99.90;;;;;;5011894;28;20045;-73
2021/08/09 02:40:22;;;;;;;5.47;3.88;;;13.20;99.90;;;;;;5011793;28;20041;-74
2021/08/09 02:42:48;;;;;;;6.82;4.35;;;13.20;99.90;;;;;;5011929;28;20034;-74
2021/08/09 02:45:14;;;;;;;6.90;4.07;;;13.20;99.90;;;;;;5011818;28;20026;-74
2021/08/09 02:47:42;;;;;;;10.63;4.05;;;13.20;99.90;;;;;;5011842;28;20034;-74
2021/08/09 02:50:13;;;;;;;4.40;3.40;;;13.20;99.90;;;;;;5007022;28;20045;-73
2021/08/09 02:52:40;;;;;;;5.50;3.90;;;13.20;99.90;;;;;;4993658;28;20018;-73
2021/08/09 02:55:08;;;;;;;6.30;4.13;;;13.30;99.90;;;;;;4995936;28;20058;-73
2021/08/09 02:57:35;;;;;;;5.00;4.10;;;13.20;99.90;;;;;;4996437;28;20030;-73
2021/08/09 03:00:00;;;;;;;6.97;3.55;;;13.10;99.90;;;;;;4996538;28;20057;-73
2021/08/09 03:02:29;;;;;;;7.50;4.10;;;13.20;99.90;;;;;;4996067;28;20058;-73
2021/08/09 03:04:55;;;;;;;5.72;3.80;;;13.10;99.90;;;;;;4995640;28;20110;-73
2021/08/09 03:07:23;;;;;;;7.40;4.07;;;13.00;99.90;;;;;;4996061;28;20022;-73
2021/08/09 03:09:49;;;;;;;3.80;3.30;;;13.10;99.90;;;;;;4995865;28;20102;-74
2021/08/09 03:12:18;;;;;;;5.20;3.75;;;13.00;99.90;;;;;;4995842;28;20033;-73
2021/08/09 03:14:52;;;;;;;6.15;3.78;;;12.90;99.90;;;;;;4995621;28;20022;-73
2021/08/09 03:17:18;;;;;;;9.45;4.18;;;12.70;99.90;;;;;;4995815;28;20388;-73
2021/08/09 03:19:44;;;;;;;6.00;3.83;;;12.70;99.90;;;;;;4994403;28;20034;-73
2021/08/09 03:22:10;;;;;;;5.85;3.75;;;12.50;99.90;;;;;;4995545;28;20037;-73
2021/08/09 03:24:37;;;;;;;5.53;3.78;;;12.50;99.90;;;;;;4995360;28;20108;-73
2021/08/09 03:27:03;;;;;;;6.78;4.00;;;12.30;99.90;;;;;;4994246;28;20023;-73
2021/08/09 03:29:29;;;;;;;4.63;3.78;;;12.20;99.90;;;;;;4995564;28;20608;-73
2021/08/09 03:31:55;;;;;;;4.88;3.53;;;12.30;99.90;;;;;;4995338;28;20113;-73
2021/08/09 03:34:20;;;;;;;5.20;4.32;;;12.30;99.90;;;;;;4995300;28;20515;-73
2021/08/09 03:36:47;;;;;;;6.90;4.00;;;12.40;99.90;;;;;;4995453;28;20339;-73
2021/08/09 03:39:16;;;;;;;6.88;4.15;;;12.30;99.90;;;;;;4995628;28;20029;-75
2021/08/09 03:41:42;;;;;;;6.38;4.82;;;12.20;99.90;;;;;;4995156;28;20503;-73
2021/08/09 03:44:08;;;;;;;6.65;4.30;;;11.90;99.90;;;;;;4995170;28;20030;-73
2021/08/09 03:46:33;;;;;;;5.70;4.10;;;11.80;99.90;;;;;;4994856;28;20389;-73
2021/08/09 03:48:59;;;;;;;6.43;4.60;;;12.00;99.90;;;;;;4993905;28;20026;-73
2021/08/09 03:51:24;;;;;;;7.97;4.78;;;12.10;99.90;;;;;;4995021;28;20034;-73
2021/08/09 03:53:50;;;;;;;6.65;4.10;;;12.10;99.90;;;;;;4995158;28;20027;-73
2021/08/09 03:56:16;;;;;;;6.28;4.18;;;12.20;99.90;;;;;;4994855;28;20030;-74
2021/08/09 03:58:41;;;;;;;7.03;4.35;;;12.20;99.90;;;;;;4993738;28;20101;-73
2021/08/09 04:01:07;;;;;;;6.22;4.60;;;12.20;99.90;;;;;;4994836;28;20042;-73
2021/08/09 04:03:35;;;;;;;6.80;5.00;;;12.20;99.90;;;;;;4994602;28;20448;-73
2021/08/09 04:06:00;;;;;;;5.53;4.75;;;12.10;99.90;;;;;;4994621;28;20057;-73
2021/08/09 04:08:26;;;;;;;7.55;4.68;;;12.20;99.90;;;;;;4994898;28;20046;-74
2021/08/09 04:10:51;;;;;;;7.10;4.72;;;12.10;99.90;;;;;;4993429;28;20030;-73
2021/08/09 04:13:18;;;;;;;6.80;5.15;;;12.10;99.90;;;;;;4994809;28;20368;-73
2021/08/09 04:15:44;;;;;;;7.63;4.57;;;11.90;99.90;;;;;;4994124;28;20145;-73
2021/08/09 04:18:09;;;;;;;6.72;5.28;;;11.90;99.90;;;;;;4994734;28;20026;-73
2021/08/09 04:20:35;;;;;;;7.50;4.50;;;12.00;99.90;;;;;;4994509;28;20026;-73
2021/08/09 04:23:00;;;;;;;6.03;4.93;;;12.10;99.90;;;;;;4994569;28;20034;-74
2021/08/09 04:25:28;;;;;;;6.35;4.88;;;12.10;99.90;;;;;;4994218;28;20041;-74
2021/08/09 04:27:53;;;;;;;7.13;4.65;;;12.00;99.90;;;;;;4994532;28;20094;-73
2021/08/09 04:30:19;;;;;;;7.68;5.00;;;12.10;99.90;;;;;;4996162;28;20101;-73
2021/08/09 04:32:44;;;;;;;8.27;4.80;;;11.90;99.90;;;;;;5013939;28;20018;-73
2021/08/09 04:35:11;;;;;;;9.80;4.75;;;12.10;99.90;;;;;;5013695;28;20380;-73
2021/08/09 04:37:38;;;;;;;7.53;4.63;;;12.30;99.90;;;;;;5014176;28;20033;-73
2021/08/09 04:40:06;;;;;;;6.57;4.57;;;12.40;99.90;;;;;;5012648;28;20025;-73
2021/08/09 04:42:31;;;;;;;8.90;4.50;;;12.50;99.90;;;;;;5013872;28;20026;-73
2021/08/09 04:44:57;;;;;;;6.22;4.63;;;12.60;99.90;;;;;;5013282;28;20032;-73
2021/08/09 04:47:23;;;;;;;5.88;4.30;;;12.50;99.90;;;;;;5013867;28;20080;-73
2021/08/09 04:49:49;;;;;;;7.03;4.30;;;12.60;99.90;;;;;;5013428;28;20033;-74
2021/08/09 04:52:15;;;;;;;6.93;5.15;;;12.70;99.90;;;;;;5013588;28;20022;-73
2021/08/09 04:54:41;;;;;;;4.82;4.32;;;12.70;99.90;;;;;;5011975;28;20040;-73
2021/08/09 04:57:06;;;;;;;6.28;4.30;;;12.60;99.90;;;;;;5013592;28;20030;-74
2021/08/09 04:59:32;;;;;;;6.60;4.20;;;12.50;99.90;;;;;;5013295;28;20025;-73
2021/08/09 05:01:58;;;;;;;5.88;4.60;;;12.50;99.90;;;;;;5013431;28;20506;-73
2021/08/09 05:04:23;;;;;;;4.93;4.10;;;12.70;99.90;;;;;;5012956;28;20029;-73
2021/08/09 05:06:49;;;;;;;7.55;4.57;;;12.80;99.90;;;;;;5013301;28;20109;-73
2021/08/09 05:09:15;;;;;;;7.07;4.53;;;13.00;99.90;;;;;;5013303;28;20018;-73
2021/08/09 05:11:41;;;;;;;6.88;4.13;;;13.10;99.90;;;;;;5013154;28;20034;-73
2021/08/09 05:14:06;;;;;;;4.65;3.80;;;13.20;99.90;;;;;;5010761;28;20439;-73
2021/08/09 05:16:34;;;;;;;9.13;4.60;;;13.10;99.90;;;;;;4992800;28;20030;-73
2021/08/09 05:19:03;;;;;;;5.93;4.35;;;13.20;99.90;;;;;;4994160;28;20031;-73
2021/08/09 05:21:35;;;;;;;4.55;3.88;;;13.20;99.90;;;;;;4992101;28;20026;-73
2021/08/09 05:24:02;;;;;;;5.97;3.78;;;13.20;99.90;;;;;;4993273;28;20157;-73
2021/08/09 05:26:28;;;;;;;6.20;3.72;;;13.30;99.90;;;;;;4993203;28;20029;-73
2021/08/09 05:28:54;;;;;;;6.13;3.97;;;13.50;99.90;;;;;;4993301;28;20031;-74
2021/08/09 05:31:20;;;;;;;5.22;3.72;;;13.50;99.90;;;;;;4993268;28;20109;-73
2021/08/09 05:33:46;;;;;;;4.63;3.97;;;13.70;99.90;;;;;;4993249;28;20216;-73
2021/08/09 05:36:11;;;;;;;4.68;3.83;;;13.60;99.90;;;;;;4993033;28;20492;-73
2021/08/09 05:38:37;;;;;;;5.25;4.03;;;13.60;99.90;;;;;;4993145;28;20081;-73
2021/08/09 05:41:03;;;;;;;6.40;3.75;;;13.60;99.90;;;;;;4993054;28;20030;-73
2021/08/09 05:43:29;;;;;;;6.55;3.97;;;13.90;99.90;;;;;;4992922;28;20432;-73
2021/08/09 05:45:55;;;;;;;4.90;4.03;;;14.00;99.90;;;;;;4992839;28;20555;-73
2021/08/09 05:48:20;;;;;;;5.25;3.28;;;14.10;99.90;;;;;;4992991;28;20034;-74
2021/08/09 05:50:46;;;;;;;4.90;3.33;;;14.20;99.90;;;;;;4992753;28;20033;-73
2021/08/09 05:53:11;;;;;;;6.32;3.28;;;14.20;99.90;;;;;;4992902;28;20397;-73
2021/08/09 05:55:37;;;;;;;10.68;3.70;;;14.20;99.90;;;;;;4992621;28;20037;-73
2021/08/09 05:58:03;;;;;;;5.43;3.10;;;14.20;99.90;;;;;;4992772;28;20489;-74
2021/08/09 06:00:28;;;;;;;5.13;3.45;;;14.30;99.90;;;;;;4993341;28;20099;-73
2021/08/09 06:02:54;;;;;;;5.47;2.92;;;14.40;99.90;;;;;;4993251;28;20058;-74
2021/08/09 06:05:19;;;;;;;4.97;3.10;;;14.40;99.90;;;;;;4992654;28;20512;-73
2021/08/09 06:07:45;;;;;;;6.20;3.00;;;14.60;99.90;;;;;;4992656;28;20101;-74
2021/08/09 06:10:10;;;;;;;4.30;2.92;;;14.60;99.90;;;;;;4991363;28;20076;-73
2021/08/09 06:12:37;;;;;;;3.80;2.90;;;14.70;99.90;;;;;;4992490;28;20105;-73
2021/08/09 06:15:05;;;;;;;5.68;2.80;;;14.70;99.90;;;;;;4992764;28;20346;-73
2021/08/09 06:17:34;;;;;;;5.35;3.25;;;14.80;99.90;;;;;;4992893;28;20401;-73
2021/08/09 06:20:01;;;;;;;5.10;3.03;;;14.90;99.90;;;;;;4992455;28;20509;-73
2021/08/09 06:22:26;;;;;;;3.55;2.95;;;15.00;99.90;;;;;;4992392;28;20038;-73
2021/08/09 06:24:52;;;;;;;4.30;3.20;;;15.10;99.90;;;;;;4992110;28;20030;-74
2021/08/09 06:27:17;;;;;;;3.80;3.00;;;15.20;99.90;;;;;;4992413;28;20456;-73
2021/08/09 06:29:43;;;;;;;4.80;2.90;;;15.20;99.90;;;;;;5003248;28;20370;-73
2021/08/09 06:32:08;;;;;;;5.70;2.90;;;15.40;99.90;;;;;;5011950;28;20236;-74
2021/08/09 06:34:34;;;;;;;4.65;3.15;;;15.40;99.90;;;;;;5011736;28;20084;-73
2021/08/09 06:36:59;;;;;;;3.88;3.15;;;15.40;99.90;;;;;;5011931;28;20032;-73
2021/08/09 06:39:25;;;;;;;7.35;3.15;;;15.50;99.90;;;;;;5001508;28;20031;-73
2021/08/09 06:41:50;;;;;;;4.75;2.88;;;15.60;99.90;;;;;;4994725;28;20587;-74
2021/08/09 06:44:16;;;;;;;3.67;2.88;;;15.70;99.90;;;;;;5011851;28;20100;-74
2021/08/09 06:46:41;;;;;;;4.05;2.83;;;15.80;99.90;;;;;;5010416;28;20492;-74
2021/08/09 06:49:07;;;;;;;4.43;3.00;;;15.90;99.90;;;;;;5011655;28;20105;-73
2021/08/09 06:51:33;;;;;;;5.35;2.92;;;16.00;99.90;;;;;;5010501;28;20053;-73
2021/08/09 06:53:58;;;;;;;5.22;3.00;;;16.00;99.90;;;;;;5011741;28;20037;-74
2021/08/09 06:56:24;;;;;;;8.75;3.08;;;16.20;99.90;;;;;;4994784;28;20459;-73
2021/08/09 06:58:49;;;;;;;4.95;2.88;;;16.40;99.90;;;;;;4992301;28;20069;-74
2021/08/09 07:01:15;;;;;;;5.82;2.70;;;16.40;99.90;;;;;;4992036;28;20030;-74
2021/08/09 07:03:44;;;;;;;5.28;3.10;;;16.60;99.90;;;;;;4992047;28;20066;-74
2021/08/09 07:06:18;;;;;;;4.15;3.00;;;16.70;99.90;;;;;;4991808;28;20026;-73
2021/08/09 07:08:43;;;;;;;4.40;2.80;;;17.10;99.90;;;;;;4992035;28;20045;-73
2021/08/09 07:11:08;;;;;;;4.20;2.25;;;17.40;99.90;;;;;;4990622;28;20374;-74
2021/08/09 07:13:34;;;;;;;5.30;3.00;;;17.40;99.90;;;;;;5003267;28;20037;-73
2021/08/09 07:15:59;;;;;;;3.30;2.53;;;17.40;99.90;;;;;;4993603;28;20088;-74
2021/08/09 07:18:25;;;;;;;4.47;2.72;;;17.40;99.90;;;;;;4991969;28;20035;-74
2021/08/09 07:20:50;;;;;;;4.65;2.58;;;17.20;99.90;;;;;;4991836;28;20022;-75
2021/08/09 07:23:16;;;;;;;4.03;2.42;;;17.10;99.90;;;;;;4991886;28;20424;-74
2021/08/09 07:25:42;;;;;;;4.22;2.13;;;16.90;99.90;;;;;;4991637;28;20448;-74
2021/08/09 07:28:08;;;;;;;3.78;2.63;;;17.10;99.90;;;;;;4991964;28;20039;-73
2021/08/09 07:30:33;;;;;;;3.53;2.55;;;17.30;99.90;;;;;;4991948;28;20511;-73
2021/08/09 07:32:59;;;;;;;5.43;2.70;;;17.50;99.90;;;;;;4991898;28;20081;-74
2021/08/09 07:35:24;;;;;;;6.35;2.40;;;17.40;99.90;;;;;;4991652;28;20050;-73
2021/08/09 07:37:52;;;;;;;3.13;2.47;;;17.70;99.90;;;;;;4991900;28;20038;-74
2021/08/09 07:40:17;;;;;;;3.65;2.58;;;18.00;99.90;;;;;;4995196;28;20101;-74
2021/08/09 07:42:43;;;;;;;3.47;2.45;;;18.00;99.90;;;;;;4995432;28;20455;-73
2021/08/09 07:45:09;;;;;;;3.97;2.60;;;17.70;99.90;;;;;;4994995;28;20141;-73
2021/08/09 07:47:35;;;;;;;3.22;2.75;;;17.60;99.90;;;;;;4995260;28;20030;-74
2021/08/09 07:50:00;;;;;;;2.78;2.15;;;17.70;99.90;;;;;;4993806;28;20080;-74
2021/08/09 07:52:26;;;;;;;3.55;2.40;;;17.80;99.90;;;;;;4995139;28;20026;-74
2021/08/09 07:54:51;;;;;;;4.65;2.35;;;17.80;99.90;;;;;;4994887;28;20034;-73
2021/08/09 07:57:18;;;;;;;4.53;2.00;;;18.00;99.90;;;;;;4995177;28;20637;-74
2021/08/09 07:59:43;;;;;;;3.58;2.20;;;18.30;99.90;;;;;;4995012;28;20031;-74
2021/08/09 08:02:09;;;;;;;3.03;2.60;;;18.40;99.90;;;;;;4994875;28;20026;-73
2021/08/09 08:04:34;;;;;;;3.47;2.28;;;18.50;99.90;;;;;;4998077;28;20037;-74
2021/08/09 08:07:00;;;;;;;4.50;2.20;;;18.30;99.90;;;;;;5014435;28;20480;-74
2021/08/09 08:09:25;;;;;;;4.18;1.90;;;18.30;99.90;;;;;;5014349;28;20049;-74
2021/08/09 08:11:51;;;;;;;3.10;1.75;;;18.10;99.90;;;;;;5014357;28;20022;-74
2021/08/09 08:14:17;;;;;;;3.30;2.15;;;18.10;99.90;;;;;;5010419;28;20025;-73
2021/08/09 08:16:42;;;;;;;2.95;1.88;;;18.10;99.90;;;;;;4994615;28;20036;-74
2021/08/09 08:19:08;;;;;;;5.82;2.33;;;18.20;99.90;;;;;;4994607;28;20069;-74
2021/08/09 08:21:33;;;;;;;6.13;2.40;;;18.30;99.90;;;;;;4994485;28;20393;-73
2021/08/09 08:24:00;;;;;;;5.68;2.10;;;18.60;99.90;;;;;;5010987;28;20029;-74
2021/08/09 08:26:25;;;;;;;3.50;2.00;;;18.70;99.90;;;;;;5012710;28;20022;-73
2021/08/09 08:28:51;;;;;;;3.58;1.73;;;18.60;99.90;;;;;;5014223;28;20030;-74
2021/08/09 08:31:17;;;;;;;3.78;1.90;;;18.60;99.90;;;;;;5013980;28;20125;-74
2021/08/09 08:33:42;;;;;;;3.40;1.88;;;18.70;99.90;;;;;;5013854;28;20026;-74
2021/08/09 08:36:08;;;;;;;3.65;1.80;;;18.70;99.90;;;;;;5013701;28;20041;-74
2021/08/09 08:38:35;;;;;;;5.32;2.30;;;18.80;99.90;;;;;;5013845;28;20075;-74
2021/08/09 08:41:04;;;;;;;3.33;1.80;;;18.90;99.90;;;;;;5013838;28;20100;-74
2021/08/09 08:43:31;;;;;;;3.67;1.50;;;19.00;99.90;;;;;;5013717;28;20029;-74
2021/08/09 08:46:04;;;;;;;2.65;1.58;;;18.80;99.90;;;;;;5013509;28;20021;-74
2021/08/09 08:48:31;;;;;;;2.85;1.58;;;18.70;99.90;;;;;;5013693;28;20392;-74
2021/08/09 08:50:58;;;;;;;2.97;1.50;;;18.70;99.90;;;;;;5012496;28;20096;-74
2021/08/09 08:53:27;;;;;;;2.78;1.60;;;18.80;99.90;;;;;;5013562;28;20022;-74
2021/08/09 08:55:52;;;;;;;1.92;1.50;;;18.80;99.90;;;;;;5013389;28;20455;-73
2021/08/09 08:58:18;;;;;;;2.75;1.55;;;19.10;99.90;;;;;;5012169;28;20030;-74
2021/08/09 09:00:46;;;;;;;2.45;1.42;;;19.40;99.90;;;;;;5013323;28;20026;-74
2021/08/09 09:03:22;;;;;;;2.00;1.75;;;19.40;99.90;;;;;;4994340;28;20023;-74
2021/08/09 09:06:04;;;;;;;;;;;19.40;99.90;;;;;;4993945;28;20022;-74
2021/08/09 09:08:43;;;;;;;2.15;1.50;;;19.20;99.90;;;;;;4993920;28;19913;-74
2021/08/09 09:11:14;;;;;;;2.95;1.77;;;19.30;99.90;;;;;;4993876;28;20025;-74
2021/08/09 09:14:00;;;;;;;4.50;1.90;;;19.30;99.90;;;;;;4993742;28;20026;-74
2021/08/09 09:16:41;;;;;;;3.83;1.83;;;19.50;99.90;;;;;;4981603;28;20034;-74
2021/08/09 09:19:06;;;;;;;2.22;1.40;;;20.00;99.90;;;;;;4993548;28;20477;-74
2021/08/09 09:21:38;;;;;;;2.10;1.70;;;19.70;99.90;;;;;;4993412;28;20101;-74
2021/08/09 09:24:18;;;;;;;2.25;1.60;;;19.90;99.90;;;;;;4993215;28;20026;-74
2021/08/09 09:27:12;;;;;;;3.17;1.45;;;20.20;99.90;;;;;;4993339;28;20399;-74
2021/08/09 09:29:39;;;;;;;2.95;1.40;;;20.30;99.90;;;;;;4993010;28;20231;-74
2021/08/09 09:32:19;;;;;;;2.78;1.60;;;19.70;99.90;;;;;;4991927;28;20033;-74
2021/08/09 09:34:46;;;;;;;1.80;1.10;;;19.80;99.90;;;;;;4993054;28;20397;-74
2021/08/09 09:37:24;;;;;;;2.50;1.27;;;20.20;99.90;;;;;;4993256;28;20040;-73
2021/08/09 09:39:49;;;;;;;2.75;1.40;;;20.20;99.90;;;;;;4993169;28;20361;-74
2021/08/09 09:42:15;;;;;;;3.53;1.50;;;20.20;99.90;;;;;;4993061;28;20034;-74
2021/08/09 09:44:43;;;;;;;2.80;1.45;;;20.20;99.90;;;;;;4992655;28;20034;-73
2021/08/09 09:47:32;;;;;;;3.65;1.52;;;20.10;99.90;;;;;;4992973;28;20036;-73
2021/08/09 09:49:59;;;;;;;2.95;1.58;;;20.00;99.90;;;;;;4992852;28;20034;-74
2021/08/09 09:52:44;;;;;;;2.83;1.30;;;20.30;99.90;;;;;;4991614;28;20478;-74
2021/08/09 09:55:12;;;;;;;2.53;1.20;;;20.30;99.90;;;;;;4992827;28;20057;-74
2021/08/09 09:57:39;;;;;;;2.38;1.48;;;20.40;99.90;;;;;;4991564;28;20052;-73
2021/08/09 10:00:12;;;;;;;2.10;1.40;;;20.50;99.90;;;;;;4992697;28;20084;-73
2021/08/09 10:02:48;;;;;;;2.75;1.73;;;20.70;99.90;;;;;;4992602;28;20477;-74
2021/08/09 10:05:15;;;;;;;3.35;1.45;;;21.10;99.90;;;;;;4991318;28;20037;-74
2021/08/09 10:07:43;;;;;;;3.15;1.38;;;20.70;99.90;;;;;;4992642;28;20062;-74
2021/08/09 10:10:09;;;;;;;2.53;1.60;;;20.70;99.90;;;;;;4992626;28;20022;-74
2021/08/09 10:12:37;;;;;;;3.13;1.73;;;20.10;99.90;;;;;;4992583;28;20612;-73
2021/08/09 10:15:04;;;;;;;3.42;1.70;;;20.10;99.90;;;;;;4992222;28;20018;-74
2021/08/09 10:17:31;;;;;;;1.45;1.35;;;20.60;99.90;;;;;;4992561;28;20380;-74
2021/08/09 10:20:00;;;;;;;4.60;1.88;;;20.90;99.90;;;;;;4992638;28;20388;-74
2021/08/09 10:22:26;;;;;;;1.85;1.45;;;21.20;99.90;;;;;;4990974;28;20092;-74
2021/08/09 10:24:54;;;;;;;3.03;1.65;;;21.20;99.90;;;;;;4992187;28;20035;-75
2021/08/09 10:27:51;;;;;;;3.97;2.20;;;21.30;99.90;;;;;;4992569;28;20022;-74
2021/08/09 10:30:31;;;;;;;3.30;1.60;;;21.30;99.90;;;;;;4992367;28;20105;-74
2021/08/09 10:32:57;;;;;;;2.58;1.73;;;21.10;99.90;;;;;;4992477;28;20026;-74
2021/08/09 10:35:35;;;;;;;2.97;1.60;;;21.50;99.90;;;;;;4992106;28;20033;-74
2021/08/09 10:38:10;;;;;;;2.67;1.50;;;21.30;99.90;;;;;;4992466;28;20026;-74
2021/08/09 10:40:35;;;;;;;2.30;1.40;;;21.50;99.90;;;;;;4992274;28;20030;-74
2021/08/09 10:43:01;;;;;;;2.50;1.40;;;21.80;99.90;;;;;;4992182;28;20034;-74
2021/08/09 10:45:41;;;;;;;6.07;1.55;;;22.30;99.90;;;;;;4991636;28;20497;-74
2021/08/09 10:48:11;;;;;;;2.15;1.50;;;22.10;99.90;;;;;;4992444;28;20416;-73
2021/08/09 10:50:40;;;;;;;2.47;1.42;;;22.20;99.90;;;;;;4992250;28;20038;-74
2021/08/09 10:53:28;;;;;;;2.80;1.50;;;21.80;99.90;;;;;;4992183;28;20543;-73
2021/08/09 10:55:58;;;;;;;2.90;1.60;;;21.80;99.90;;;;;;4991908;28;20076;-73
2021/08/09 10:58:42;;;;;;;3.05;1.77;;;22.10;99.90;;;;;;4991959;28;20037;-74
2021/08/09 11:01:08;;;;;;;3.60;2.13;;;22.70;99.90;;;;;;4992005;28;20032;-74
2021/08/09 11:03:33;;;;;;;3.45;1.70;;;22.80;99.90;;;;;;4990854;28;20026;-74
2021/08/09 11:06:38;;;;;;;3.10;1.70;;;22.20;99.90;;;;;;4991708;28;20062;-74
2021/08/09 11:09:35;;;;;;;2.45;1.92;;;22.00;99.90;;;;;;4992045;28;20022;-73
2021/08/09 11:12:08;;;;;;;2.50;1.52;;;21.90;99.90;;;;;;4991966;28;20029;-74
2021/08/09 11:15:03;;;;;;;4.25;2.00;;;21.30;99.90;;;;;;4995250;28;20018;-74
2021/08/09 11:17:32;;;;;;;3.40;1.70;;;22.20;99.90;;;;;;4996216;28;20022;-74
2021/08/09 11:20:29;;;;;;;3.28;1.90;;;22.90;99.90;;;;;;4995821;28;20030;-73
2021/08/09 11:23:13;;;;;;;2.55;1.52;;;23.60;99.90;;;;;;4995697;28;20427;-73
2021/08/09 11:25:47;;;;;;;3.58;1.95;;;23.20;99.90;;;;;;4995251;28;20026;-73
2021/08/09 11:28:25;;;;;;;3.47;1.88;;;22.10;99.90;;;;;;4995745;28;20033;-73
2021/08/09 11:30:55;;;;;;;4.80;1.85;;;21.40;99.90;;;;;;4995500;28;20022;-73
2021/08/09 11:33:34;;;;;;;3.55;1.67;;;21.20;99.90;;;;;;4995392;28;20081;-74
2021/08/09 11:36:00;;;;;;;4.22;1.85;;;21.20;99.90;;;;;;4994065;28;20365;-73
2021/08/09 11:38:28;;;;;;;2.33;1.50;;;21.30;99.90;;;;;;4997503;28;20392;-73
2021/08/09 11:41:05;;;;;;;3.00;1.65;;;21.70;99.90;;;;;;5015003;28;20116;-73
2021/08/09 11:43:31;;;;;;;2.65;1.50;;;22.80;99.90;;;;;;5015485;28;20021;-73
2021/08/09 11:46:03;;;;;;;2.42;1.45;;;23.40;99.90;;;;;;5013281;28;20447;-74
2021/08/09 11:48:31;;;;;;;1.88;1.30;;;23.50;99.90;;;;;;5014863;28;20030;-73
2021/08/09 11:51:09;;;;;;;1.92;1.40;;;22.60;99.90;;;;;;5014755;28;20025;-73
2021/08/09 11:53:37;;;;;;;2.10;1.30;;;22.50;99.90;;;;;;5014782;28;20037;-73
2021/08/09 11:56:09;;;;;;;2.60;1.50;;;22.70;99.90;;;;;;5014459;28;20489;-73
2021/08/09 11:58:35;;;;;;;4.47;1.30;;;22.60;99.90;;;;;;5014713;28;20025;-73
2021/08/09 12:01:02;;;;;;;3.05;1.35;;;22.80;99.90;;;;;;5015085;28;20030;-74
2021/08/09 12:03:28;;;;;;;1.92;1.40;;;22.80;99.90;;;;;;5014848;28;20040;-73
2021/08/09 12:06:23;;;;;;;2.20;1.52;;;22.60;99.90;;;;;;5014132;28;20026;-73
2021/08/09 12:08:54;;;;;;;1.67;1.40;;;22.10;99.90;;;;;;5014433;28;20022;-73
2021/08/09 12:11:31;;;;;;;2.08;1.50;;;22.20;99.90;;;;;;5014392;28;20022;-73
2021/08/09 12:14:09;;;;;;;3.38;1.38;;;22.10;99.90;;;;;;5013288;28;20050;-73
2021/08/09 12:16:58;;;;;;;2.08;1.25;;;22.20;99.90;;;;;;4994594;28;20099;-73
2021/08/09 12:19:41;;;;;;;2.78;1.40;;;22.40;99.90;;;;;;4994679;28;20023;-73
2021/08/09 12:22:19;;;;;;;2.45;1.40;;;22.70;99.90;;;;;;4993326;28;20029;-73
2021/08/09 12:25:17;;;;;;;3.20;1.50;;;23.10;99.90;;;;;;4994203;28;20034;-73
2021/08/09 12:27:44;;;;;;;1.30;1.20;;;23.40;99.90;;;;;;4994635;28;20035;-73
2021/08/09 12:30:17;;;;;;;2.95;1.30;;;23.10;99.90;;;;;;4994674;28;20025;-73
2021/08/09 12:32:58;;;;;;;1.92;1.10;;;22.70;99.90;;;;;;4994582;28;20053;-73
2021/08/09 12:35:41;;;;;;;3.50;1.50;;;22.70;99.90;;;;;;4994237;28;20029;-73
2021/08/09 12:38:08;;;;;;;2.40;1.17;;;22.90;99.90;;;;;;4994437;28;20076;-73
2021/08/09 12:40:40;;;;;;;3.22;1.30;;;23.00;99.90;;;;;;4994199;28;20034;-73
2021/08/09 12:43:08;;;;;;;1.60;1.23;;;22.90;99.90;;;;;;4994534;28;20037;-73
2021/08/09 12:45:35;;;;;;;1.90;1.17;;;23.20;99.90;;;;;;4993936;28;20019;-73
2021/08/09 12:48:03;;;;;;;1.88;1.20;;;23.70;99.90;;;;;;4994189;28;20412;-73
2021/08/09 12:50:28;;;;;;;2.85;1.40;;;23.40;99.90;;;;;;4993854;28;20508;-73
2021/08/09 12:52:54;;;;;;;4.13;1.40;;;24.90;99.90;;;;;;4994130;28;20035;-73
2021/08/09 12:55:19;;;;;;;1.48;1.33;;;25.60;99.90;;;;;;4993817;28;20034;-73
2021/08/09 12:57:50;;;;;;;3.20;1.00;;;25.00;99.90;;;;;;4993963;28;20026;-73